SAVC/CRD METAR and TAF weather

Enter ICAO airport designator
Station Type Date Time Source
SAVC METAR 2019/02/16 17:00 UTC NOAA

SAVC 161700Z 29019G29KT CAVOK 35/05 Q1004


Station Type Date Time Source
SAVC Decoded METAR 2019/02/16 17:00 UTC NOAA

Comodoro Rivadavia Aerodrome, Argentina (SAVC) 45-47S 067-30W 46M
Feb 16, 2019 - 12:00 PM EST / 2019.02.16 1700 UTC
Wind: from the WNW (290 degrees) at 22 MPH (19 KT) gusting to 33 MPH (29 KT):0
Visibility: greater than 7 mile(s):0
Temperature: 95 F (35 C)
Dew Point: 41 F (5 C)
Relative Humidity: 15%
Pressure (altimeter): 29.65 in. Hg (1004 hPa)
ob: SAVC 161700Z 29019G29KT CAVOK 35/05 Q1004
cycle: 17

Station Type Date Time Source
SAVC TAF 2019/02/16 12:03 UTC NOAA

TAF TAF SAVC 161100Z 1612/1712 29015G30KT CAVOK TX35/1619Z TN23/1610Z
BECMG 1615/1617 27010KT PROB40
TEMPO 1616/1620 05015KT
BECMG 1702/1704 29020G35KT


Example: see airport list